Time;durP1;ratioP1;P1;durP2;ratioP2;P2;SDS_P1;SDS_P2;PMS_P1;PMS_P2;Temp;Humidity;BMP_temperature;BMP_pressure;BME280_temperature;BME280_humidity;BME280_pressure;Samples;Min_cycle;Max_cycle;Signal;HPM_P1;HPM_P2
2023/09/01 00:01:15;;;;;;;2.90;1.63;;;13.90;1.00;;;;;;4976111;28;20047;-84
2023/09/01 00:04:00;;;;;;;3.03;1.65;;;13.90;1.00;;;;;;4983051;28;20049;-85
2023/09/01 00:06:26;;;;;;;1.70;1.25;;;13.90;1.00;;;;;;4981714;28;20038;-83
2023/09/01 00:08:52;;;;;;;1.63;1.25;;;13.90;1.00;;;;;;4981204;28;20467;-84
2023/09/01 00:11:20;;;;;;;1.95;1.40;;;13.90;1.00;;;;;;4984694;28;20046;-83
2023/09/01 00:13:47;;;;;;;1.65;1.45;;;13.90;1.00;;;;;;4978479;28;20046;-82
2023/09/01 00:16:13;;;;;;;4.53;2.53;;;14.00;1.00;;;;;;4982542;28;20039;-83
2023/09/01 00:18:42;;;;;;;2.80;2.10;;;14.00;1.00;;;;;;4981560;28;20038;-84
2023/09/01 00:21:08;;;;;;;2.22;2.03;;;14.00;1.00;;;;;;4976446;28;20034;-81
2023/09/01 00:23:34;;;;;;;2.70;1.65;;;14.00;1.00;;;;;;4979451;28;20065;-86
2023/09/01 00:26:01;;;;;;;2.53;2.33;;;14.10;1.00;;;;;;4981592;28;20046;-81
2023/09/01 00:28:28;;;;;;;2.55;2.30;;;14.00;1.00;;;;;;4978493;28;20046;-82
2023/09/01 00:30:59;;;;;;;3.63;3.20;;;14.00;1.00;;;;;;4981846;28;20038;-79
2023/09/01 00:33:28;;;;;;;3.10;1.95;;;14.00;1.00;;;;;;4987017;28;20062;-81
2023/09/01 00:35:55;;;;;;;2.30;1.45;;;14.00;1.00;;;;;;4982592;28;20038;-81
2023/09/01 00:38:24;;;;;;;1.92;1.42;;;14.10;1.00;;;;;;4992110;28;20035;-80
2023/09/01 00:40:51;;;;;;;2.22;1.75;;;14.00;1.00;;;;;;4977642;28;20468;-82
2023/09/01 00:43:17;;;;;;;1.55;1.17;;;14.00;1.00;;;;;;4975003;28;20062;-79
2023/09/01 00:45:43;;;;;;;3.05;1.92;;;14.00;1.00;;;;;;4977965;28;20034;-82
2023/09/01 00:48:11;;;;;;;4.32;1.83;;;14.10;1.00;;;;;;4977292;28;20037;-84
2023/09/01 00:50:40;;;;;;;3.30;2.05;;;14.00;1.00;;;;;;4982709;28;20034;-84
2023/09/01 00:53:07;;;;;;;2.65;1.88;;;13.90;1.00;;;;;;4975585;28;20042;-83
2023/09/01 00:55:35;;;;;;;3.20;1.77;;;14.00;1.00;;;;;;4980392;28;20038;-81
2023/09/01 00:58:03;;;;;;;2.08;1.70;;;14.00;1.00;;;;;;4977500;28;20046;-81
2023/09/01 01:00:32;;;;;;;4.07;2.25;;;14.00;1.00;;;;;;4993772;28;20038;-81
2023/09/01 01:03:04;;;;;;;2.38;2.17;;;14.00;1.00;;;;;;4977761;28;20037;-82
2023/09/01 01:05:55;;;;;;;1.77;1.65;;;14.00;1.00;;;;;;4975804;28;20049;-80
2023/09/01 01:08:24;;;;;;;2.03;1.35;;;14.00;1.00;;;;;;4986794;28;20034;-81
2023/09/01 01:11:06;;;;;;;1.73;1.20;;;14.00;1.00;;;;;;4981575;28;20045;-80
2023/09/01 01:13:39;;;;;;;2.72;1.25;;;14.00;1.00;;;;;;4989958;28;20050;-83
2023/09/01 01:16:07;;;;;;;3.42;1.75;;;14.00;1.00;;;;;;4981142;28;20030;-82
2023/09/01 01:18:36;;;;;;;1.42;0.88;;;14.00;1.00;;;;;;4980815;28;20034;-82
2023/09/01 01:21:17;;;;;;;1.80;1.25;;;14.00;1.00;;;;;;4976567;28;20038;-83
2023/09/01 01:23:44;;;;;;;1.98;1.40;;;14.00;1.00;;;;;;4976557;28;20042;-83
2023/09/01 01:26:16;;;;;;;1.58;1.20;;;14.00;1.00;;;;;;4976013;28;20027;-81
2023/09/01 01:28:44;;;;;;;4.85;1.65;;;14.00;1.00;;;;;;4978728;28;20046;-82
2023/09/01 01:31:10;;;;;;;2.17;1.95;;;14.00;1.00;;;;;;4981716;28;20480;-82
2023/09/01 01:33:55;;;;;;;1.67;1.52;;;14.00;1.00;;;;;;4987149;28;20403;-83
2023/09/01 01:37:17;;;;;;;2.85;1.83;;;14.00;1.00;;;;;;4979558;28;20042;-84
2023/09/01 01:39:46;;;;;;;1.63;1.08;;;14.00;1.00;;;;;;4970166;28;20042;-83
2023/09/01 01:42:18;;;;;;;1.55;0.77;;;14.00;1.00;;;;;;4979696;28;20037;-84
2023/09/01 01:44:48;;;;;;;1.08;0.82;;;14.00;1.80;;;;;;4977189;28;20043;-82
2023/09/01 01:47:16;;;;;;;13.20;2.72;;;14.00;11.00;;;;;;4975892;28;20854;-87
2023/09/01 01:49:42;;;;;;;4.28;2.10;;;14.00;23.40;;;;;;4978724;28;20102;-84
2023/09/01 01:52:08;;;;;;;2.30;1.20;;;14.00;28.80;;;;;;4980942;28;20046;-83
2023/09/01 01:54:34;;;;;;;1.60;1.27;;;14.00;32.40;;;;;;4979356;28;20464;-87
2023/09/01 01:57:01;;;;;;;2.42;1.77;;;14.00;35.50;;;;;;4995414;28;20049;-84
2023/09/01 01:59:27;;;;;;;0.93;0.80;;;14.00;39.00;;;;;;4977939;28;20046;-82
2023/09/01 02:01:53;;;;;;;1.20;0.88;;;14.00;42.70;;;;;;4978122;28;20472;-81
2023/09/01 02:04:19;;;;;;;2.50;1.48;;;14.00;47.10;;;;;;4974570;28;20051;-83
2023/09/01 02:06:45;;;;;;;2.03;0.90;;;14.10;50.60;;;;;;4976245;28;20034;-83
2023/09/01 02:09:13;;;;;;;0.68;0.68;;;14.10;53.20;;;;;;4980687;28;20039;-84
2023/09/01 02:11:39;;;;;;;1.77;1.40;;;14.10;56.60;;;;;;4979629;28;20034;-82
2023/09/01 02:14:06;;;;;;;2.53;1.48;;;14.10;61.00;;;;;;4986868;28;20173;-82
2023/09/01 02:16:32;;;;;;;2.42;2.13;;;14.10;64.80;;;;;;4983877;28;20054;-85
2023/09/01 02:18:58;;;;;;;1.08;0.90;;;14.10;69.20;;;;;;4983241;28;20463;-84
2023/09/01 02:21:25;;;;;;;3.30;2.05;;;14.10;72.80;;;;;;4996277;28;20031;-86
2023/09/01 02:23:51;;;;;;;2.17;1.63;;;14.10;77.30;;;;;;4982094;28;20035;-82
2023/09/01 02:26:19;;;;;;;1.77;1.13;;;14.10;80.70;;;;;;4984611;28;20038;-83
2023/09/01 02:28:46;;;;;;;2.08;1.52;;;14.10;84.60;;;;;;4981473;28;20488;-82
2023/09/01 02:31:13;;;;;;;3.30;3.00;;;14.10;89.50;;;;;;4979431;28;20035;-82
2023/09/01 02:33:40;;;;;;;2.63;2.42;;;14.20;92.00;;;;;;4982109;28;20051;-82
2023/09/01 02:36:35;;;;;;;4.50;2.05;;;14.20;93.90;;;;;;4988396;28;20031;-83
2023/09/01 02:39:04;;;;;;;3.42;2.75;;;14.20;95.50;;;;;;4982338;28;20027;-83
2023/09/01 02:41:30;;;;;;;3.58;2.50;;;14.20;98.30;;;;;;5000948;28;20053;-82
2023/09/01 02:43:57;;;;;;;2.58;1.98;;;14.30;99.90;;;;;;4982049;28;20038;-82
2023/09/01 02:46:24;;;;;;;3.35;2.22;;;14.30;99.90;;;;;;4983079;28;20030;-82
2023/09/01 02:48:52;;;;;;;5.18;3.63;;;14.30;99.90;;;;;;4999542;28;20053;-82
2023/09/01 02:51:18;;;;;;;4.68;3.03;;;14.30;99.90;;;;;;4982495;28;20038;-83
2023/09/01 02:53:44;;;;;;;3.13;2.42;;;14.20;99.90;;;;;;4996412;28;20058;-83
2023/09/01 02:56:10;;;;;;;2.85;2.47;;;14.30;99.90;;;;;;4976563;28;20034;-83
2023/09/01 02:58:37;;;;;;;6.45;4.00;;;14.30;99.90;;;;;;4987704;28;20053;-83
2023/09/01 03:01:09;;;;;;;6.18;3.83;;;14.30;99.90;;;;;;4985145;28;20041;-84
2023/09/01 03:03:38;;;;;;;2.85;2.53;;;14.30;99.90;;;;;;4981078;28;21126;-84
2023/09/01 03:06:10;;;;;;;4.97;4.22;;;14.30;99.90;;;;;;4983444;28;20030;-83
2023/09/01 03:08:38;;;;;;;6.13;2.67;;;14.20;99.90;;;;;;4982542;28;20159;-82
2023/09/01 03:11:05;;;;;;;4.32;3.90;;;14.30;99.90;;;;;;4977809;28;20046;-84
2023/09/01 03:13:32;;;;;;;4.18;2.80;;;14.30;99.90;;;;;;4974398;28;20065;-81
2023/09/01 03:15:58;;;;;;;4.38;2.78;;;14.30;99.90;;;;;;4975319;28;20035;-82
2023/09/01 03:18:25;;;;;;;4.72;3.50;;;14.40;99.90;;;;;;4992183;28;20050;-83
2023/09/01 03:20:55;;;;;;;6.43;3.00;;;14.40;99.90;;;;;;4996253;28;20053;-82
2023/09/01 03:23:22;;;;;;;2.88;2.28;;;14.40;99.90;;;;;;4993104;28;20038;-82
2023/09/01 03:25:57;;;;;;;4.30;3.85;;;14.40;99.90;;;;;;4987337;28;20030;-82
2023/09/01 03:28:27;;;;;;;4.32;2.78;;;14.40;99.90;;;;;;4982834;28;20381;-82
2023/09/01 03:30:53;;;;;;;6.47;5.88;;;14.40;99.90;;;;;;4977859;28;20035;-82
2023/09/01 03:33:22;;;;;;;4.07;3.33;;;14.50;99.90;;;;;;4980795;28;20045;-82
2023/09/01 03:35:48;;;;;;;3.53;2.80;;;14.40;99.90;;;;;;4980004;28;20039;-82
2023/09/01 03:38:14;;;;;;;5.63;3.45;;;14.50;99.90;;;;;;4979721;28;20035;-81
2023/09/01 03:40:41;;;;;;;3.58;3.17;;;14.50;99.90;;;;;;4977706;28;20397;-82
2023/09/01 03:43:08;;;;;;;2.90;2.28;;;14.50;99.90;;;;;;4985396;28;20030;-82
2023/09/01 03:45:34;;;;;;;4.38;2.92;;;14.40;99.90;;;;;;4981451;28;20046;-82
2023/09/01 03:48:00;;;;;;;8.75;5.93;;;14.50;99.90;;;;;;4989172;28;20042;-82
2023/09/01 03:50:26;;;;;;;3.55;2.50;;;14.50;99.90;;;;;;4980001;28;20034;-82
2023/09/01 03:52:53;;;;;;;5.47;3.20;;;14.50;99.90;;;;;;4979552;28;20744;-82
2023/09/01 03:55:19;;;;;;;4.20;2.63;;;14.50;99.90;;;;;;4981281;28;20392;-82
2023/09/01 03:57:45;;;;;;;5.20;2.92;;;14.50;99.90;;;;;;4999784;28;20035;-82
2023/09/01 04:00:12;;;;;;;3.58;2.95;;;14.50;99.90;;;;;;4997022;28;20034;-82
2023/09/01 04:02:42;;;;;;;3.83;3.37;;;14.50;99.90;;;;;;4982423;28;20505;-82
2023/09/01 04:05:09;;;;;;;5.05;3.20;;;14.50;99.90;;;;;;4975306;28;20050;-82
2023/09/01 04:07:35;;;;;;;3.75;2.75;;;14.50;99.90;;;;;;4983069;28;20035;-83
2023/09/01 04:10:04;;;;;;;5.82;3.53;;;14.60;99.90;;;;;;4985431;28;20475;-82
2023/09/01 04:12:30;;;;;;;3.20;2.25;;;14.60;99.90;;;;;;4978816;28;20035;-82
2023/09/01 04:14:56;;;;;;;2.80;1.90;;;14.60;99.90;;;;;;4991374;28;20047;-82
2023/09/01 04:17:22;;;;;;;8.05;3.95;;;14.60;99.90;;;;;;4998293;28;20035;-82
2023/09/01 04:19:48;;;;;;;6.18;3.20;;;14.60;99.90;;;;;;4977665;28;20134;-83
2023/09/01 04:22:15;;;;;;;3.80;2.25;;;14.60;99.90;;;;;;4975870;28;20038;-82
2023/09/01 04:24:41;;;;;;;3.67;2.50;;;14.60;99.90;;;;;;4982019;28;20046;-82
2023/09/01 04:27:07;;;;;;;3.20;2.10;;;14.60;99.90;;;;;;4981047;28;20053;-83
2023/09/01 04:29:36;;;;;;;4.45;4.05;;;14.70;99.90;;;;;;4979131;28;20038;-82
2023/09/01 04:32:06;;;;;;;3.83;3.13;;;14.70;99.90;;;;;;4977326;28;20054;-82
2023/09/01 04:34:32;;;;;;;4.80;2.67;;;14.70;99.90;;;;;;5000201;28;20077;-82
2023/09/01 04:36:58;;;;;;;3.58;2.65;;;14.70;99.90;;;;;;4978288;28;20039;-83
2023/09/01 04:39:25;;;;;;;2.60;2.13;;;14.70;99.90;;;;;;4977217;28;20030;-82
2023/09/01 04:41:51;;;;;;;4.60;2.38;;;14.80;99.90;;;;;;4979988;28;20591;-83
2023/09/01 04:44:18;;;;;;;3.05;2.55;;;14.70;99.90;;;;;;4979477;28;20055;-83
2023/09/01 04:46:44;;;;;;;4.78;3.83;;;14.80;99.90;;;;;;4978792;28;20043;-82
2023/09/01 04:49:10;;;;;;;5.72;2.60;;;14.80;99.90;;;;;;4979604;28;20043;-83
2023/09/01 04:51:37;;;;;;;4.03;2.90;;;14.80;99.90;;;;;;4971964;28;20459;-82
2023/09/01 04:54:03;;;;;;;4.22;3.40;;;14.80;99.90;;;;;;4986918;28;20049;-82
2023/09/01 04:56:30;;;;;;;3.17;2.85;;;14.90;99.90;;;;;;4976992;28;20483;-83
2023/09/01 04:58:58;;;;;;;5.38;3.25;;;14.90;99.90;;;;;;4988437;28;20043;-82
2023/09/01 05:01:24;;;;;;;4.13;3.65;;;14.90;99.90;;;;;;4973617;28;20042;-82
2023/09/01 05:03:50;;;;;;;5.45;3.22;;;14.90;99.90;;;;;;4978493;28;20035;-82
2023/09/01 05:06:16;;;;;;;5.70;3.83;;;14.90;99.90;;;;;;4994609;28;20038;-82
2023/09/01 05:08:42;;;;;;;4.03;3.58;;;15.00;99.90;;;;;;4990914;28;20519;-81
2023/09/01 05:11:09;;;;;;;3.78;3.25;;;14.90;99.90;;;;;;4979245;28;20050;-82
2023/09/01 05:13:36;;;;;;;3.78;2.83;;;15.00;99.90;;;;;;4976342;28;20039;-82
2023/09/01 05:16:03;;;;;;;3.40;3.10;;;15.00;99.90;;;;;;4980669;28;20038;-82
2023/09/01 05:18:29;;;;;;;4.38;3.88;;;15.10;99.90;;;;;;4985584;28;20046;-81
2023/09/01 05:20:55;;;;;;;3.05;2.40;;;15.00;99.90;;;;;;4979694;28;20049;-84
2023/09/01 05:23:23;;;;;;;5.03;3.13;;;15.00;99.90;;;;;;4982355;28;20038;-83
2023/09/01 05:25:52;;;;;;;3.97;3.25;;;15.10;99.90;;;;;;4997249;28;20057;-82
2023/09/01 05:28:18;;;;;;;3.80;2.20;;;15.10;99.90;;;;;;4999945;28;20054;-82
2023/09/01 05:30:45;;;;;;;5.18;3.30;;;15.20;99.90;;;;;;4994322;28;20058;-81
2023/09/01 05:33:11;;;;;;;3.50;3.20;;;15.30;99.90;;;;;;4974316;28;20039;-82
2023/09/01 05:35:37;;;;;;;3.53;2.20;;;15.30;99.90;;;;;;4982259;28;20042;-82
2023/09/01 05:38:03;;;;;;;6.13;3.50;;;15.30;99.90;;;;;;4992446;28;20046;-82
2023/09/01 05:40:30;;;;;;;3.65;3.15;;;15.40;99.90;;;;;;4973022;28;20054;-82
2023/09/01 05:42:56;;;;;;;5.20;2.50;;;15.40;99.90;;;;;;4982386;28;20050;-81
2023/09/01 05:45:22;;;;;;;5.78;3.35;;;15.40;99.90;;;;;;4997995;28;20046;-81
2023/09/01 05:47:48;;;;;;;4.30;2.83;;;15.40;99.90;;;;;;4981170;28;20035;-81
2023/09/01 05:50:14;;;;;;;3.00;2.20;;;15.50;99.90;;;;;;4979136;28;20035;-81
2023/09/01 05:52:41;;;;;;;2.50;2.28;;;15.50;99.90;;;;;;4982172;28;20034;-81
2023/09/01 05:55:07;;;;;;;2.45;1.58;;;15.60;99.90;;;;;;4982656;28;20039;-81
2023/09/01 05:57:33;;;;;;;2.22;1.25;;;15.60;99.90;;;;;;4985532;28;20046;-81
2023/09/01 05:59:59;;;;;;;2.38;1.75;;;15.70;99.90;;;;;;4983607;28;20387;-82
2023/09/01 06:02:25;;;;;;;2.05;1.48;;;15.70;99.90;;;;;;4983116;28;20428;-82
2023/09/01 06:04:52;;;;;;;2.25;1.35;;;15.70;99.90;;;;;;4978582;28;20043;-83
2023/09/01 06:07:18;;;;;;;2.03;1.40;;;15.70;99.90;;;;;;4983481;28;20038;-83
2023/09/01 06:09:44;;;;;;;2.42;1.45;;;15.80;99.90;;;;;;4979719;28;20031;-82
2023/09/01 06:12:11;;;;;;;2.45;1.70;;;15.90;99.90;;;;;;4976759;28;20035;-85
2023/09/01 06:14:37;;;;;;;5.18;2.85;;;15.90;99.90;;;;;;4977183;28;20399;-82
2023/09/01 06:17:03;;;;;;;5.60;2.03;;;16.00;99.90;;;;;;4990510;28;20030;-82
2023/09/01 06:19:29;;;;;;;2.88;1.50;;;16.00;99.90;;;;;;4981454;28;20053;-81
2023/09/01 06:21:58;;;;;;;3.40;1.92;;;16.00;99.90;;;;;;4979264;28;20032;-81
2023/09/01 06:24:25;;;;;;;2.95;1.92;;;16.00;99.90;;;;;;4978909;28;20050;-81
2023/09/01 06:26:53;;;;;;;1.50;0.88;;;16.10;99.90;;;;;;4981918;28;20361;-81
2023/09/01 06:29:19;;;;;;;1.90;1.13;;;16.10;99.90;;;;;;4979276;28;20046;-81
2023/09/01 06:31:45;;;;;;;1.30;0.80;;;16.10;99.90;;;;;;4976470;28;20480;-82
2023/09/01 06:34:12;;;;;;;1.92;1.77;;;16.20;99.90;;;;;;4976956;28;20042;-83
2023/09/01 06:36:38;;;;;;;4.00;1.95;;;16.20;99.90;;;;;;4985011;28;20035;-81
2023/09/01 06:39:04;;;;;;;0.77;0.73;;;16.20;99.90;;;;;;4982233;28;20050;-82
2023/09/01 06:41:31;;;;;;;1.48;0.82;;;16.20;99.90;;;;;;4983559;28;20035;-81
2023/09/01 06:43:57;;;;;;;1.25;0.75;;;16.20;99.90;;;;;;4984565;28;20046;-82
2023/09/01 06:46:23;;;;;;;1.17;0.70;;;16.20;99.90;;;;;;4980321;28;20341;-82
2023/09/01 06:48:49;;;;;;;1.48;0.63;;;16.30;99.90;;;;;;4977805;28;20031;-83
2023/09/01 06:51:16;;;;;;;1.00;0.63;;;16.30;99.90;;;;;;4980656;28;20467;-82
2023/09/01 06:53:42;;;;;;;1.70;0.80;;;16.30;99.90;;;;;;4976525;28;20471;-81
2023/09/01 06:56:08;;;;;;;0.88;0.70;;;16.40;99.90;;;;;;4974587;28;20046;-82
2023/09/01 06:58:34;;;;;;;1.10;0.50;;;16.40;99.90;;;;;;4982732;28;20030;-81
2023/09/01 07:01:08;;;;;;;0.90;0.52;;;16.50;99.90;;;;;;4990404;28;20034;-82
2023/09/01 07:03:34;;;;;;;2.08;1.25;;;16.50;99.90;;;;;;4981062;28;20382;-83
2023/09/01 07:06:00;;;;;;;1.23;1.00;;;16.50;99.90;;;;;;4979899;28;20467;-82
2023/09/01 07:08:28;;;;;;;1.00;0.50;;;16.50;99.90;;;;;;4978026;28;20054;-81
2023/09/01 07:11:03;;;;;;;0.70;0.57;;;16.60;99.90;;;;;;4981612;28;20484;-82
2023/09/01 07:13:30;;;;;;;2.20;0.55;;;16.60;99.90;;;;;;4987479;28;20035;-81
2023/09/01 07:15:56;;;;;;;0.93;0.75;;;16.70;99.90;;;;;;4982676;28;20046;-80
2023/09/01 07:18:23;;;;;;;0.90;0.35;;;16.90;99.90;;;;;;4977015;28;20030;-82
2023/09/01 07:20:50;;;;;;;1.13;0.60;;;17.00;99.90;;;;;;4983640;28;20026;-81
2023/09/01 07:23:16;;;;;;;0.70;0.70;;;17.10;99.90;;;;;;4980584;28;20393;-81
2023/09/01 07:25:44;;;;;;;1.20;0.68;;;17.30;99.90;;;;;;4985343;28;20381;-82
2023/09/01 07:28:12;;;;;;;0.70;0.70;;;17.50;99.90;;;;;;4981370;28;20057;-80
2023/09/01 07:30:38;;;;;;;0.43;0.40;;;17.60;60.10;;;;;;4984925;28;20030;-81
2023/09/01 07:33:04;;;;;;;2.45;0.70;;;17.60;1.00;;;;;;4984985;28;20040;-81
2023/09/01 07:35:30;;;;;;;2.15;0.80;;;17.70;1.00;;;;;;4976775;28;20038;-80
2023/09/01 07:37:57;;;;;;;2.53;1.27;;;17.80;1.00;;;;;;4993240;28;20035;-82
2023/09/01 07:40:24;;;;;;;1.05;0.75;;;18.00;99.90;;;;;;4975999;28;20362;-81
2023/09/01 07:42:50;;;;;;;1.65;1.40;;;18.20;99.90;;;;;;4991550;28;20395;-81
2023/09/01 07:45:16;;;;;;;0.85;0.30;;;18.60;99.90;;;;;;5000419;28;20050;-83
2023/09/01 07:47:43;;;;;;;0.30;0.20;;;18.80;99.90;;;;;;5002215;28;20391;-82
2023/09/01 07:50:09;;;;;;;0.63;0.30;;;18.90;90.10;;;;;;4980890;28;20035;-82
2023/09/01 07:52:36;;;;;;;2.35;1.70;;;18.90;1.00;;;;;;4981950;28;20376;-82
2023/09/01 07:55:05;;;;;;;1.23;1.13;;;18.90;1.00;;;;;;4992828;28;20042;-82
2023/09/01 07:57:32;;;;;;;2.45;0.60;;;19.10;1.00;;;;;;4978131;28;20034;-83
2023/09/01 07:59:58;;;;;;;1.20;0.65;;;19.00;1.00;;;;;;4981471;28;20424;-83
2023/09/01 08:02:24;;;;;;;0.75;0.60;;;19.10;1.00;;;;;;4981415;28;20039;-82
2023/09/01 08:04:50;;;;;;;1.17;0.73;;;19.20;99.90;;;;;;4977180;28;20035;-82
2023/09/01 08:07:17;;;;;;;1.83;0.32;;;19.20;1.00;;;;;;4985390;28;20035;-82
2023/09/01 08:09:43;;;;;;;3.58;1.33;;;19.10;99.90;;;;;;4986093;28;20030;-82
2023/09/01 08:12:09;;;;;;;1.10;0.43;;;19.10;99.90;;;;;;4990203;28;20046;-81
2023/09/01 08:14:35;;;;;;;1.08;0.50;;;19.00;99.90;;;;;;4985199;28;20030;-81
2023/09/01 08:17:01;;;;;;;0.80;0.55;;;18.90;99.90;;;;;;4981385;28;20037;-81
2023/09/01 08:19:28;;;;;;;1.60;0.75;;;18.90;99.90;;;;;;4982480;28;20034;-81
2023/09/01 08:21:56;;;;;;;1.65;0.40;;;18.90;1.00;;;;;;4985772;28;20035;-82
2023/09/01 08:24:23;;;;;;;2.58;0.70;;;18.80;99.90;;;;;;4982494;28;20045;-80
2023/09/01 08:26:49;;;;;;;1.70;1.10;;;18.80;99.90;;;;;;4991990;28;20037;-83
2023/09/01 08:29:15;;;;;;;0.98;0.50;;;18.70;99.90;;;;;;5000792;28;20435;-82
2023/09/01 08:31:42;;;;;;;1.23;0.35;;;18.70;99.90;;;;;;4999780;28;20026;-82
2023/09/01 08:34:10;;;;;;;2.47;0.63;;;18.80;99.90;;;;;;5002791;28;20550;-81
2023/09/01 08:36:37;;;;;;;1.75;0.80;;;18.80;99.90;;;;;;4997775;28;20043;-80
2023/09/01 08:39:05;;;;;;;2.28;0.63;;;19.00;99.90;;;;;;4981723;28;20031;-80
2023/09/01 08:41:32;;;;;;;1.45;0.70;;;19.30;99.90;;;;;;4979758;28;20035;-80
2023/09/01 08:44:04;;;;;;;1.42;0.60;;;19.50;99.90;;;;;;4976112;28;20030;-81
2023/09/01 08:46:32;;;;;;;1.70;0.50;;;19.70;99.90;;;;;;4981965;28;20049;-81
2023/09/01 08:48:59;;;;;;;2.20;0.40;;;19.60;99.90;;;;;;4986397;28;20038;-81
2023/09/01 08:51:25;;;;;;;2.80;1.65;;;19.50;99.90;;;;;;4985785;28;20062;-81
2023/09/01 08:53:53;;;;;;;1.35;0.45;;;19.60;99.90;;;;;;4980292;28;20038;-80
2023/09/01 08:56:20;;;;;;;2.00;1.63;;;19.70;99.90;;;;;;4979060;28;20042;-80
2023/09/01 08:58:46;;;;;;;6.53;1.75;;;19.70;99.90;;;;;;4981437;28;20383;-80
2023/09/01 09:01:13;;;;;;;0.95;0.50;;;19.70;99.90;;;;;;4978539;28;20046;-82
2023/09/01 09:03:40;;;;;;;0.88;0.50;;;19.80;99.90;;;;;;4984235;28;20093;-80
2023/09/01 09:06:06;;;;;;;0.82;0.38;;;19.80;99.90;;;;;;4977352;28;20040;-81
2023/09/01 09:08:34;;;;;;;1.50;0.40;;;19.70;99.40;;;;;;4978804;28;20391;-81
2023/09/01 09:11:00;;;;;;;2.70;0.40;;;19.70;99.90;;;;;;4981549;28;20038;-80
2023/09/01 09:13:29;;;;;;;1.13;0.35;;;19.60;99.90;;;;;;4975972;28;20030;-81
2023/09/01 09:16:07;;;;;;;2.03;1.08;;;19.60;99.90;;;;;;4981829;28;20043;-80
2023/09/01 09:18:34;;;;;;;2.40;0.50;;;19.70;99.90;;;;;;4982104;28;20030;-81
2023/09/01 09:21:02;;;;;;;0.63;0.63;;;19.70;99.90;;;;;;4978975;28;20050;-81
2023/09/01 09:23:46;;;;;;;1.00;0.40;;;19.70;99.90;;;;;;4979623;28;20038;-83
2023/09/01 09:26:12;;;;;;;1.40;0.55;;;19.60;99.90;;;;;;4982314;28;20041;-80
2023/09/01 09:28:39;;;;;;;1.20;0.60;;;19.60;99.90;;;;;;4974373;28;20377;-79
2023/09/01 09:31:06;;;;;;;1.77;1.02;;;19.60;99.90;;;;;;4973961;28;20046;-80
2023/09/01 09:33:34;;;;;;;1.20;0.50;;;19.70;99.90;;;;;;4985079;28;20515;-81
2023/09/01 09:36:01;;;;;;;0.60;0.40;;;19.50;99.90;;;;;;4980074;28;20055;-79
2023/09/01 09:38:41;;;;;;;1.50;0.50;;;19.50;99.90;;;;;;4977493;28;20046;-80
2023/09/01 09:41:07;;;;;;;1.00;0.30;;;19.50;99.90;;;;;;4985181;28;20388;-79
2023/09/01 09:43:50;;;;;;;1.98;0.43;;;19.50;99.90;;;;;;4978668;28;20483;-80
2023/09/01 09:46:17;;;;;;;0.70;0.30;;;19.60;99.90;;;;;;4976528;28;20042;-79
2023/09/01 09:48:43;;;;;;;1.02;0.45;;;19.70;99.90;;;;;;4974097;28;20043;-79
2023/09/01 09:51:10;;;;;;;2.03;0.50;;;19.80;99.90;;;;;;4975351;28;20046;-80
2023/09/01 09:53:38;;;;;;;1.08;0.45;;;19.70;99.90;;;;;;4981187;28;20038;-80
2023/09/01 09:56:20;;;;;;;1.23;0.93;;;19.60;99.90;;;;;;4985538;28;20052;-82
2023/09/01 09:58:49;;;;;;;0.45;0.32;;;19.60;99.90;;;;;;4984043;28;20037;-81
2023/09/01 10:01:19;;;;;;;0.40;0.40;;;19.50;99.90;;;;;;4981086;28;20035;-82
2023/09/01 10:03:47;;;;;;;1.20;0.30;;;19.50;99.90;;;;;;4987912;28;20054;-81
2023/09/01 10:06:18;;;;;;;3.20;0.63;;;19.60;99.90;;;;;;4976414;28;20061;-81
2023/09/01 10:08:45;;;;;;;1.42;0.73;;;19.50;99.90;;;;;;4980902;28;20273;-82
2023/09/01 10:11:16;;;;;;;1.13;0.60;;;19.40;99.90;;;;;;4981486;28;20464;-80
2023/09/01 10:13:45;;;;;;;1.67;0.60;;;19.50;99.90;;;;;;4979177;28;20039;-82
2023/09/01 10:16:13;;;;;;;1.90;0.52;;;19.40;99.90;;;;;;4982798;28;20031;-82
2023/09/01 10:18:43;;;;;;;1.15;0.60;;;19.40;99.90;;;;;;4992343;28;20035;-82
2023/09/01 10:21:10;;;;;;;1.38;0.40;;;19.30;99.90;;;;;;4978971;28;20054;-83
2023/09/01 10:23:37;;;;;;;1.10;0.40;;;19.30;99.90;;;;;;4977407;28;20039;-82
2023/09/01 10:26:17;;;;;;;1.20;0.60;;;19.20;99.90;;;;;;4980707;28;20038;-81
2023/09/01 10:29:04;;;;;;;2.60;1.30;;;19.20;99.90;;;;;;4977583;28;20054;-81
2023/09/01 10:31:33;;;;;;;1.40;0.50;;;19.30;99.90;;;;;;4982825;28;20034;-82
2023/09/01 10:34:10;;;;;;;0.93;0.55;;;19.20;99.90;;;;;;4983681;28;20042;-83
2023/09/01 10:36:37;;;;;;;1.98;1.17;;;19.10;99.90;;;;;;4985612;28;20042;-82
2023/09/01 10:39:18;;;;;;;1.10;0.50;;;19.10;99.90;;;;;;4980793;28;20045;-80
2023/09/01 10:41:59;;;;;;;1.70;0.60;;;18.90;99.90;;;;;;4986124;28;20039;-80
2023/09/01 10:44:48;;;;;;;1.20;0.63;;;18.90;1.00;;;;;;4997861;28;20038;-82
2023/09/01 10:47:33;;;;;;;1.70;0.77;;;18.80;1.00;;;;;;4984692;28;20055;-82
2023/09/01 10:50:03;;;;;;;3.42;1.65;;;18.80;1.00;;;;;;4979983;28;20034;-81
2023/09/01 10:52:31;;;;;;;2.03;1.05;;;18.90;1.00;;;;;;4978746;28;20035;-82
2023/09/01 10:55:02;;;;;;;1.17;0.63;;;19.00;1.00;;;;;;4982878;28;20468;-82
2023/09/01 10:58:07;;;;;;;0.80;0.40;;;19.00;1.00;;;;;;4982645;28;20043;-84
2023/09/01 11:00:34;;;;;;;3.97;0.57;;;19.00;1.00;;;;;;4982527;28;20053;-84
2023/09/01 11:03:29;;;;;;;1.13;0.50;;;19.20;1.00;;;;;;4984105;28;20491;-82
2023/09/01 11:06:03;;;;;;;5.20;2.63;;;19.40;1.00;;;;;;4979043;28;20042;-82
2023/09/01 11:08:30;;;;;;;4.22;2.15;;;19.60;1.00;;;;;;4982216;28;20111;-88
2023/09/01 11:11:07;;;;;;;1.27;0.50;;;19.80;99.90;;;;;;4982216;28;20031;-81
2023/09/01 11:13:33;;;;;;;0.85;0.50;;;19.90;99.90;;;;;;4977824;28;20035;-83
2023/09/01 11:16:07;;;;;;;0.90;0.40;;;20.00;99.90;;;;;;4979628;28;20031;-83
2023/09/01 11:18:34;;;;;;;0.75;0.30;;;20.10;99.90;;;;;;4979447;28;20057;-81
2023/09/01 11:21:00;;;;;;;2.33;0.90;;;20.10;99.90;;;;;;4993120;28;20031;-81
2023/09/01 11:23:30;;;;;;;1.25;0.80;;;19.90;99.90;;;;;;4985055;28;20030;-81
2023/09/01 11:26:03;;;;;;;2.65;0.93;;;19.90;99.90;;;;;;4982935;28;20408;-82
2023/09/01 11:28:30;;;;;;;0.40;0.40;;;19.90;99.90;;;;;;4988965;28;20050;-82
2023/09/01 11:31:03;;;;;;;0.82;0.55;;;19.90;99.90;;;;;;4996233;28;20493;-82
2023/09/01 11:33:36;;;;;;;3.35;1.23;;;19.90;99.90;;;;;;4989888;28;20042;-87
2023/09/01 11:36:04;;;;;;;1.00;0.43;;;20.20;99.90;;;;;;4984982;28;20520;-80
2023/09/01 11:38:31;;;;;;;1.02;0.50;;;20.40;99.90;;;;;;4977874;28;20039;-81
2023/09/01 11:40:58;;;;;;;0.93;0.40;;;20.60;99.90;;;;;;4980199;28;20046;-81
2023/09/01 11:43:24;;;;;;;0.80;0.45;;;20.80;99.90;;;;;;4989351;28;20030;-81
2023/09/01 11:45:51;;;;;;;1.45;0.40;;;21.10;99.90;;;;;;4990700;28;20030;-82
2023/09/01 11:48:28;;;;;;;2.08;0.47;;;21.20;27.80;;;;;;4980996;28;20046;-82
2023/09/01 11:50:57;;;;;;;0.60;0.40;;;21.40;84.80;;;;;;4980459;28;20041;-81
2023/09/01 11:53:25;;;;;;;2.00;0.43;;;21.60;20.80;;;;;;4983476;28;20444;-81
2023/09/01 11:55:52;;;;;;;2.70;0.70;;;21.70;14.10;;;;;;4981197;28;20098;-83
2023/09/01 11:58:18;;;;;;;0.80;0.40;;;21.50;1.00;;;;;;4978479;28;20395;-82
2023/09/01 12:00:44;;;;;;;0.88;0.30;;;21.40;1.00;;;;;;4976979;28;20031;-81
2023/09/01 12:03:11;;;;;;;0.80;0.30;;;21.40;1.00;;;;;;4982183;28;20388;-82
2023/09/01 12:05:42;;;;;;;0.40;0.30;;;21.40;1.00;;;;;;4981992;28;20043;-82
2023/09/01 12:08:09;;;;;;;0.60;0.30;;;21.40;1.00;;;;;;4976669;28;20058;-83
2023/09/01 12:10:36;;;;;;;0.85;0.40;;;21.60;1.00;;;;;;4990089;28;20479;-88
2023/09/01 12:13:10;;;;;;;0.30;0.30;;;21.70;99.90;;;;;;4994374;28;20050;-81
2023/09/01 12:15:56;;;;;;;1.95;0.40;;;21.70;99.90;;;;;;4992226;28;20051;-83
2023/09/01 12:18:33;;;;;;;1.02;1.02;;;21.60;99.90;;;;;;4979601;28;20027;-81
2023/09/01 12:21:01;;;;;;;0.38;0.30;;;21.40;99.90;;;;;;4992981;28;20065;-81
2023/09/01 12:23:48;;;;;;;0.80;0.30;;;21.40;99.90;;;;;;4994712;28;20027;-80
2023/09/01 12:26:15;;;;;;;0.47;0.30;;;21.40;99.90;;;;;;4989939;28;20038;-82
2023/09/01 12:28:43;;;;;;;1.10;0.50;;;21.30;99.90;;;;;;4992420;28;20047;-84
2023/09/01 12:31:10;;;;;;;1.80;0.40;;;21.30;99.90;;;;;;4980457;28;20042;-81
2023/09/01 12:33:37;;;;;;;1.05;0.30;;;21.30;99.90;;;;;;4978925;28;20035;-83
2023/09/01 12:36:04;;;;;;;0.75;0.52;;;21.10;99.90;;;;;;4988093;28;20043;-80
2023/09/01 12:38:30;;;;;;;0.35;0.20;;;21.00;99.90;;;;;;4984111;28;20035;-83
2023/09/01 12:40:57;;;;;;;1.55;0.32;;;20.90;99.90;;;;;;4980634;28;20045;-81
2023/09/01 12:43:23;;;;;;;0.40;0.30;;;21.00;99.90;;;;;;4992640;28;20042;-81
2023/09/01 12:45:49;;;;;;;1.00;0.40;;;21.10;99.90;;;;;;4974713;28;20429;-81
2023/09/01 12:48:16;;;;;;;0.95;0.40;;;21.10;99.90;;;;;;4976509;28;20113;-82
2023/09/01 12:50:46;;;;;;;0.70;0.60;;;21.50;99.90;;;;;;4983019;28;20447;-82
2023/09/01 12:53:12;;;;;;;2.00;0.55;;;21.70;99.90;;;;;;4980799;28;20023;-82
2023/09/01 12:55:38;;;;;;;0.73;0.40;;;22.00;99.90;;;;;;4994969;28;20039;-84